createdAt,value
2023-03-01T00:00:28.349Z,8.45
2023-03-01T00:02:31.777Z,9.40
2023-03-01T00:04:36.638Z,6.70
2023-03-01T00:06:40.046Z,12.40
2023-03-01T00:08:44.819Z,7.82
2023-03-01T00:10:48.264Z,8.82
2023-03-01T00:12:51.720Z,7.25
2023-03-01T00:14:55.021Z,8.77
2023-03-01T00:16:58.311Z,5.50
2023-03-01T00:19:01.720Z,8.55
2023-03-01T00:21:05.500Z,8.30
2023-03-01T00:23:08.818Z,6.00
2023-03-01T00:25:13.505Z,9.95
2023-03-01T00:27:16.806Z,7.53
2023-03-01T00:29:20.405Z,7.18
2023-03-01T00:31:26.138Z,9.63
2023-03-01T00:33:29.458Z,6.25
2023-03-01T00:35:34.476Z,7.20
2023-03-01T00:37:37.794Z,6.30
2023-03-01T00:39:41.065Z,7.03
2023-03-01T00:41:46.306Z,8.60
2023-03-01T00:43:49.722Z,6.20
2023-03-01T00:45:53.037Z,7.00
2023-03-01T00:47:56.751Z,7.90
2023-03-01T00:50:00.296Z,7.03
2023-03-01T00:52:03.950Z,5.32
2023-03-01T00:54:07.280Z,8.18
2023-03-01T00:56:13.116Z,7.35
2023-03-01T00:58:17.837Z,7.88
2023-03-01T01:00:22.350Z,6.20
2023-03-01T01:02:25.780Z,6.78
2023-03-01T01:04:29.140Z,7.50
2023-03-01T01:06:34.772Z,5.65
2023-03-01T01:08:38.101Z,5.57
2023-03-01T01:10:41.442Z,6.30
2023-03-01T01:12:45.982Z,6.47
2023-03-01T01:14:52.441Z,8.27
2023-03-01T01:16:55.869Z,7.90
2023-03-01T01:19:00.386Z,8.73
2023-03-01T01:21:09.592Z,7.03
2023-03-01T01:23:12.915Z,8.82
2023-03-01T01:25:16.281Z,6.60
2023-03-01T01:27:19.602Z,5.70
2023-03-01T01:29:23.025Z,6.22
2023-03-01T01:31:29.092Z,7.50
2023-03-01T01:33:32.629Z,5.40
2023-03-01T01:35:36.217Z,6.22
2023-03-01T01:37:39.579Z,6.78
2023-03-01T01:39:43.060Z,6.18
2023-03-01T01:41:46.510Z,6.75
2023-03-01T01:43:51.531Z,5.90
2023-03-01T01:45:59.192Z,5.82
2023-03-01T01:48:08.763Z,6.82
2023-03-01T01:50:19.824Z,5.75
2023-03-01T01:52:27.842Z,10.43
2023-03-01T01:54:38.319Z,15.52
2023-03-01T01:56:49.978Z,15.23
2023-03-01T01:58:53.762Z,11.27
2023-03-01T02:00:57.380Z,11.65
2023-03-01T02:03:05.791Z,9.73
2023-03-01T02:05:16.734Z,9.10
2023-03-01T02:07:23.437Z,8.68
2023-03-01T02:09:27.373Z,8.05
2023-03-01T02:11:33.237Z,5.93
2023-03-01T02:13:37.210Z,6.78
2023-03-01T02:15:42.323Z,5.93
2023-03-01T02:17:45.905Z,7.40
2023-03-01T02:20:07.856Z,5.75
2023-03-01T02:22:20.955Z,7.60
2023-03-01T02:24:32.457Z,6.60
2023-03-01T02:26:44.196Z,6.38
2023-03-01T02:28:48.981Z,5.75
2023-03-01T02:31:10.359Z,6.05
2023-03-01T02:33:14.123Z,7.85
2023-03-01T02:35:19.829Z,6.82
2023-03-01T02:37:26.577Z,6.60
2023-03-01T02:39:34.641Z,8.27
2023-03-01T02:41:41.138Z,6.82
2023-03-01T02:43:45.009Z,6.57
2023-03-01T02:45:53.881Z,7.88
2023-03-01T02:47:59.259Z,5.80
2023-03-01T02:50:17.962Z,6.68
2023-03-01T02:52:32.945Z,6.57
2023-03-01T02:54:42.214Z,10.50
2023-03-01T02:56:49.184Z,6.65
2023-03-01T02:58:54.866Z,5.70
2023-03-01T03:01:01.892Z,5.68
2023-03-01T03:03:05.633Z,9.60
2023-03-01T03:05:11.985Z,8.38
2023-03-01T03:07:15.451Z,5.82
2023-03-01T03:09:20.236Z,7.32
2023-03-01T03:11:24.404Z,7.57
2023-03-01T03:13:31.363Z,5.97
2023-03-01T03:15:39.357Z,6.60
2023-03-01T03:17:46.208Z,5.70
2023-03-01T03:19:49.941Z,5.97
2023-03-01T03:21:53.437Z,6.32
2023-03-01T03:23:59.394Z,7.57
2023-03-01T03:26:05.068Z,7.82
2023-03-01T03:28:11.373Z,7.45
2023-03-01T03:30:17.537Z,7.45
2023-03-01T03:32:20.883Z,6.65
2023-03-01T03:34:25.586Z,7.60
2023-03-01T03:36:29.053Z,6.53
2023-03-01T03:38:31.532Z,6.63
2023-03-01T03:40:38.627Z,5.25
2023-03-01T03:42:41.981Z,7.95
2023-03-01T03:44:45.519Z,6.68
2023-03-01T03:46:49.003Z,6.93
2023-03-01T03:48:52.532Z,7.57
2023-03-01T03:50:58.554Z,7.40
2023-03-01T03:53:03.340Z,8.30
2023-03-01T03:55:11.880Z,8.15
2023-03-01T03:57:15.284Z,6.43
2023-03-01T03:59:18.737Z,6.25
2023-03-01T04:01:22.392Z,8.02
2023-03-01T04:03:27.065Z,8.65
2023-03-01T04:05:30.632Z,5.97
2023-03-01T04:07:35.347Z,6.25
2023-03-01T04:09:38.872Z,6.43
2023-03-01T04:11:42.314Z,6.68
2023-03-01T04:13:45.678Z,5.60
2023-03-01T04:15:51.533Z,6.28
2023-03-01T04:17:56.758Z,6.68
2023-03-01T04:20:06.598Z,7.28
2023-03-01T04:22:14.299Z,6.97
2023-03-01T04:24:19.209Z,7.72
2023-03-01T04:26:22.637Z,7.72
2023-03-01T04:28:28.170Z,12.88
2023-03-01T04:30:36.587Z,9.65
2023-03-01T04:32:40.058Z,8.10
2023-03-01T04:34:43.553Z,6.95
2023-03-01T04:36:47.163Z,8.50
2023-03-01T04:38:50.735Z,10.55
2023-03-01T04:40:55.598Z,9.88
2023-03-01T04:42:59.012Z,10.93
2023-03-01T04:45:02.479Z,8.18
2023-03-01T04:47:06.057Z,6.82
2023-03-01T04:49:09.623Z,10.23
2023-03-01T04:51:14.941Z,9.70
2023-03-01T04:53:19.665Z,8.10
2023-03-01T04:55:23.031Z,6.28
2023-03-01T04:57:28.054Z,10.02
2023-03-01T04:59:31.833Z,12.45
2023-03-01T05:01:36.404Z,17.40
2023-03-01T05:03:40.482Z,15.65
2023-03-01T05:05:45.141Z,13.45
2023-03-01T05:07:48.588Z,10.18
2023-03-01T05:09:53.997Z,9.35
2023-03-01T05:11:58.367Z,7.95
2023-03-01T05:14:03.195Z,9.07
2023-03-01T05:16:12.100Z,10.32
2023-03-01T05:18:16.356Z,8.23
2023-03-01T05:20:23.750Z,8.80
2023-03-01T05:22:27.650Z,10.00
2023-03-01T05:24:33.021Z,8.35
2023-03-01T05:26:41.465Z,9.30
2023-03-01T05:28:45.254Z,7.65
2023-03-01T05:30:52.682Z,7.18
2023-03-01T05:32:56.818Z,7.05
2023-03-01T05:35:00.332Z,11.70
2023-03-01T05:37:04.288Z,12.00
2023-03-01T05:39:07.785Z,10.00
2023-03-01T05:41:16.901Z,9.00
2023-03-01T05:43:20.798Z,10.23
2023-03-01T05:45:26.256Z,12.27
2023-03-01T05:47:32.683Z,9.10
2023-03-01T05:49:37.741Z,7.20
2023-03-01T05:51:42.372Z,8.73
2023-03-01T05:53:45.919Z,10.00
2023-03-01T05:55:50.779Z,7.30
2023-03-01T05:57:54.238Z,9.13
2023-03-01T05:59:57.732Z,8.35
2023-03-01T06:02:01.047Z,8.80
2023-03-01T06:04:06.590Z,7.72
2023-03-01T06:06:09.972Z,8.23
2023-03-01T06:08:14.665Z,10.60
2023-03-01T06:10:19.009Z,8.48
2023-03-01T06:12:22.374Z,7.22
2023-03-01T06:14:26.058Z,7.97
2023-03-01T06:16:30.055Z,8.98
2023-03-01T06:18:33.945Z,8.63
2023-03-01T06:20:38.768Z,10.23
2023-03-01T06:22:42.748Z,9.00
2023-03-01T06:24:46.201Z,12.95
2023-03-01T06:26:49.725Z,12.75
2023-03-01T06:28:53.093Z,11.20
2023-03-01T06:30:56.548Z,9.95
2023-03-01T06:33:02.327Z,12.00
2023-03-01T06:35:06.808Z,9.35
2023-03-01T06:37:11.969Z,12.48
2023-03-01T06:39:15.871Z,11.38
2023-03-01T06:41:19.266Z,13.55
2023-03-01T06:43:23.098Z,13.13
2023-03-01T06:45:26.871Z,11.52
2023-03-01T06:47:30.284Z,12.23
2023-03-01T06:49:33.742Z,12.68
2023-03-01T06:51:38.680Z,12.52
2023-03-01T06:53:43.465Z,17.75
2023-03-01T06:55:46.837Z,12.82
2023-03-01T06:57:50.330Z,15.00
2023-03-01T06:59:53.682Z,16.05
2023-03-01T07:01:57.100Z,15.55
2023-03-01T07:04:00.712Z,14.48
2023-03-01T07:06:04.236Z,10.90
2023-03-01T07:08:07.817Z,25.08
2023-03-01T07:10:14.223Z,25.33
2023-03-01T07:12:17.934Z,25.88
2023-03-01T07:14:21.713Z,22.80
2023-03-01T07:16:25.231Z,22.15
2023-03-01T07:18:29.057Z,18.90
2023-03-01T07:20:32.422Z,18.85
2023-03-01T07:22:35.828Z,17.73
2023-03-01T07:24:39.206Z,16.65
2023-03-01T07:26:43.818Z,15.05
2023-03-01T07:28:47.301Z,14.88
2023-03-01T07:30:51.094Z,12.93
2023-03-01T07:32:55.773Z,13.25
2023-03-01T07:34:59.261Z,17.30
2023-03-01T07:37:02.625Z,11.07
2023-03-01T07:39:06.006Z,11.05
2023-03-01T07:41:10.038Z,15.32
2023-03-01T07:43:14.719Z,12.40
2023-03-01T07:45:18.235Z,13.52
2023-03-01T07:47:21.842Z,12.40
2023-03-01T07:49:27.277Z,11.43
2023-03-01T07:51:30.618Z,13.32
2023-03-01T07:53:34.983Z,9.80
2023-03-01T07:55:38.561Z,10.27
2023-03-01T07:57:41.917Z,9.70
2023-03-01T07:59:46.697Z,9.35
2023-03-01T08:01:50.145Z,10.45
2023-03-01T08:03:53.730Z,9.93
2023-03-01T08:05:57.128Z,11.75
2023-03-01T08:08:00.675Z,10.60
2023-03-01T08:10:04.325Z,10.60
2023-03-01T08:12:08.371Z,11.40
2023-03-01T08:14:12.465Z,12.70
2023-03-01T08:16:17.853Z,11.68
2023-03-01T08:18:22.930Z,13.57
2023-03-01T08:20:26.338Z,12.55
2023-03-01T08:22:29.713Z,13.40
2023-03-01T08:24:33.522Z,10.50
2023-03-01T08:26:37.325Z,14.00
2023-03-01T08:28:41.819Z,10.50
2023-03-01T08:30:45.270Z,12.52
2023-03-01T08:32:50.257Z,11.82
2023-03-01T08:34:53.677Z,12.95
2023-03-01T08:36:56.990Z,10.57
2023-03-01T08:39:00.907Z,12.07
2023-03-01T08:41:05.568Z,12.65
2023-03-01T08:43:08.870Z,11.20
2023-03-01T08:45:13.575Z,12.23
2023-03-01T08:47:17.396Z,12.85
2023-03-01T08:49:22.564Z,12.02
2023-03-01T08:51:27.160Z,10.95
2023-03-01T08:53:31.240Z,9.95
2023-03-01T08:55:34.520Z,12.35
2023-03-01T08:57:37.852Z,13.90
2023-03-01T08:59:41.594Z,12.23
2023-03-01T09:01:45.809Z,10.98
2023-03-01T09:03:49.256Z,11.95
2023-03-01T09:05:54.512Z,11.10
2023-03-01T09:07:59.397Z,11.43
2023-03-01T09:10:02.811Z,10.50
2023-03-01T09:12:06.856Z,10.02
2023-03-01T09:14:10.209Z,11.23
2023-03-01T09:16:16.496Z,9.18
2023-03-01T09:18:19.918Z,9.43
2023-03-01T09:20:23.244Z,10.25
2023-03-01T09:22:27.993Z,8.43
2023-03-01T09:24:31.524Z,10.88
2023-03-01T09:26:34.965Z,12.38
2023-03-01T09:28:39.039Z,9.88
2023-03-01T09:30:42.419Z,9.50
2023-03-01T09:32:45.835Z,10.50
2023-03-01T09:35:05.909Z,12.95
2023-03-01T09:37:09.343Z,9.50
2023-03-01T09:39:14.043Z,12.55
2023-03-01T09:41:36.766Z,10.73
2023-03-01T09:43:47.573Z,11.52
2023-03-01T09:45:54.606Z,10.75
2023-03-01T09:47:59.114Z,9.47
2023-03-01T09:50:08.352Z,10.48
2023-03-01T09:52:23.254Z,8.87
2023-03-01T09:54:28.638Z,11.65
2023-03-01T09:56:36.251Z,8.60
2023-03-01T09:58:48.787Z,13.05
2023-03-01T10:00:52.667Z,9.90
2023-03-01T10:03:03.254Z,11.80
2023-03-01T10:05:16.126Z,10.83
2023-03-01T10:07:29.250Z,11.17
2023-03-01T10:09:37.533Z,8.63
2023-03-01T10:11:45.916Z,9.53
2023-03-01T10:13:57.122Z,12.07
2023-03-01T10:16:06.595Z,9.60
2023-03-01T10:18:16.064Z,10.70
2023-03-01T10:20:22.680Z,8.37
2023-03-01T10:22:30.071Z,10.30
2023-03-01T10:24:38.275Z,10.23
2023-03-01T10:26:50.436Z,8.17
2023-03-01T10:29:03.193Z,9.10
2023-03-01T10:31:10.329Z,12.20
2023-03-01T10:33:19.113Z,10.43
2023-03-01T10:35:24.841Z,8.30
2023-03-01T10:37:29.039Z,10.27
2023-03-01T10:39:33.560Z,9.97
2023-03-01T10:41:54.694Z,8.40
2023-03-01T10:44:01.098Z,10.20
2023-03-01T10:46:04.485Z,12.23
2023-03-01T10:48:15.089Z,10.67
2023-03-01T10:50:23.017Z,10.10
2023-03-01T10:52:30.050Z,9.10
2023-03-01T10:54:34.972Z,8.73
2023-03-01T10:56:50.630Z,8.60
2023-03-01T10:59:03.009Z,9.40
2023-03-01T11:01:08.548Z,9.23
2023-03-01T11:03:15.140Z,8.93
2023-03-01T11:05:25.975Z,8.47
2023-03-01T11:07:29.884Z,8.90
2023-03-01T11:09:38.559Z,10.57
2023-03-01T11:11:43.012Z,8.43
2023-03-01T11:13:54.080Z,12.40
2023-03-01T11:16:01.840Z,9.60
2023-03-01T11:18:13.732Z,12.80
2023-03-01T11:20:29.049Z,11.03
2023-03-01T11:22:34.848Z,10.30
2023-03-01T11:24:43.804Z,9.23
2023-03-01T11:26:53.081Z,8.60
2023-03-01T11:29:04.067Z,9.90
2023-03-01T11:31:13.117Z,10.80
2023-03-01T11:33:23.690Z,10.03
2023-03-01T11:35:29.920Z,10.43
2023-03-01T11:37:40.038Z,10.03
2023-03-01T11:39:48.230Z,10.13
2023-03-01T11:42:12.896Z,9.60
2023-03-01T11:44:27.458Z,9.37
2023-03-01T11:46:51.141Z,9.90
2023-03-01T11:49:02.889Z,12.13
2023-03-01T11:51:10.103Z,10.97
2023-03-01T11:53:49.434Z,9.33
2023-03-01T11:56:05.800Z,8.97
2023-03-01T11:58:22.123Z,9.03
2023-03-01T12:00:45.975Z,15.90
2023-03-01T12:03:14.889Z,11.30
2023-03-01T12:05:34.174Z,11.23
2023-03-01T12:07:48.226Z,10.60
2023-03-01T12:10:08.470Z,9.80
2023-03-01T12:12:38.676Z,9.03
2023-03-01T12:14:54.258Z,9.20
2023-03-01T12:17:26.947Z,11.40
2023-03-01T12:19:48.499Z,9.77
2023-03-01T12:22:06.511Z,9.53
2023-03-01T12:24:41.301Z,11.33
2023-03-01T12:26:55.371Z,7.90
2023-03-01T12:29:12.153Z,7.50
2023-03-01T12:31:45.873Z,11.33
2023-03-01T12:33:56.985Z,11.67
2023-03-01T12:36:24.985Z,9.43
2023-03-01T12:38:39.569Z,10.70
2023-03-01T12:41:04.322Z,10.43
2023-03-01T12:43:26.850Z,8.20
2023-03-01T12:45:45.335Z,10.10
2023-03-01T12:48:06.998Z,9.37
2023-03-01T12:50:20.866Z,9.70
2023-03-01T12:52:29.796Z,11.90
2023-03-01T12:54:35.402Z,8.20
2023-03-01T12:56:39.920Z,9.87
2023-03-01T12:58:58.375Z,10.30
2023-03-01T13:01:18.516Z,9.83
2023-03-01T13:03:31.993Z,9.00
2023-03-01T13:05:46.217Z,10.70
2023-03-01T13:07:59.757Z,8.03
2023-03-01T13:10:27.107Z,8.77
2023-03-01T13:12:51.812Z,7.27
2023-03-01T13:14:56.679Z,11.57
2023-03-01T13:17:00.188Z,9.60
2023-03-01T13:19:14.910Z,7.97
2023-03-01T13:21:32.107Z,7.73
2023-03-01T13:23:38.250Z,8.73
2023-03-01T13:26:04.616Z,8.17
2023-03-01T13:28:44.568Z,8.37
2023-03-01T13:30:47.951Z,8.70
2023-03-01T13:32:51.452Z,8.53
2023-03-01T13:34:59.813Z,6.50
2023-03-01T13:37:39.144Z,6.90
2023-03-01T13:39:42.667Z,7.40
2023-03-01T13:41:53.052Z,8.90
2023-03-01T13:43:56.469Z,9.27
2023-03-01T13:46:00.852Z,7.83
2023-03-01T13:48:10.382Z,8.50
2023-03-01T13:50:21.291Z,11.23
2023-03-01T13:52:37.743Z,9.47
2023-03-01T13:54:41.438Z,7.73
2023-03-01T13:56:46.330Z,8.70
2023-03-01T13:58:54.270Z,7.53
2023-03-01T14:01:01.029Z,7.80
2023-03-01T14:03:12.642Z,8.43
2023-03-01T14:05:16.090Z,8.47
2023-03-01T14:07:21.453Z,9.47
2023-03-01T14:09:32.531Z,8.20
2023-03-01T14:12:01.499Z,8.30
2023-03-01T14:14:37.003Z,8.27
2023-03-01T14:16:51.976Z,8.70
2023-03-01T14:19:06.198Z,9.00
2023-03-01T14:21:10.483Z,8.90
2023-03-01T14:23:16.573Z,8.27
2023-03-01T14:25:25.665Z,10.30
2023-03-01T14:27:34.397Z,8.60
2023-03-01T14:29:39.799Z,7.77
2023-03-01T14:31:52.535Z,9.70
2023-03-01T14:33:58.315Z,9.80
2023-03-01T14:36:04.186Z,8.10
2023-03-01T14:38:07.646Z,7.87
2023-03-01T14:40:28.664Z,8.10
2023-03-01T14:42:37.747Z,7.37
2023-03-01T14:44:44.225Z,7.67
2023-03-01T14:46:47.909Z,6.90
2023-03-01T14:48:53.055Z,9.23
2023-03-01T14:50:56.706Z,8.40
2023-03-01T14:53:03.095Z,8.57
2023-03-01T14:55:15.824Z,7.93
2023-03-01T14:57:23.614Z,7.77
2023-03-01T14:59:27.686Z,7.03
2023-03-01T15:01:31.354Z,10.47
2023-03-01T15:03:37.974Z,9.60
2023-03-01T15:05:42.862Z,7.33
2023-03-01T15:07:49.865Z,7.90
2023-03-01T15:09:53.670Z,8.00
2023-03-01T15:11:57.048Z,7.53
2023-03-01T15:14:02.259Z,6.87
2023-03-01T15:16:09.839Z,7.13
2023-03-01T15:18:19.967Z,5.77
2023-03-01T15:20:28.394Z,7.47
2023-03-01T15:22:32.224Z,7.83
2023-03-01T15:24:37.363Z,8.17
2023-03-01T15:26:43.778Z,7.30
2023-03-01T15:28:52.840Z,8.33
2023-03-01T15:31:04.213Z,8.93
2023-03-01T15:33:32.366Z,7.90
2023-03-01T15:35:43.357Z,7.73
2023-03-01T15:37:48.723Z,6.70
2023-03-01T15:39:55.988Z,10.23
2023-03-01T15:41:59.715Z,7.30
2023-03-01T15:44:17.388Z,7.67
2023-03-01T15:46:26.109Z,10.27
2023-03-01T15:48:29.946Z,9.10
2023-03-01T15:50:35.677Z,6.67
2023-03-01T15:52:43.766Z,15.50
2023-03-01T15:54:47.813Z,12.37
2023-03-01T15:56:51.750Z,7.60
2023-03-01T15:58:55.189Z,7.10
2023-03-01T16:01:02.031Z,7.87
2023-03-01T16:03:08.292Z,6.97
2023-03-01T16:05:20.429Z,7.47
2023-03-01T16:07:23.768Z,7.10
2023-03-01T16:09:28.555Z,10.17
2023-03-01T16:11:33.525Z,11.30
2023-03-01T16:13:36.918Z,5.77
2023-03-01T16:15:41.191Z,9.10
2023-03-01T16:17:44.664Z,5.27
2023-03-01T16:19:50.021Z,6.40
2023-03-01T16:21:53.314Z,7.40
2023-03-01T16:23:57.279Z,7.07
2023-03-01T16:26:01.189Z,7.17
2023-03-01T16:28:09.723Z,8.60
2023-03-01T16:30:14.946Z,7.23
2023-03-01T16:32:18.372Z,8.43
2023-03-01T16:34:22.791Z,9.20
2023-03-01T16:36:29.401Z,8.57
2023-03-01T16:38:33.503Z,6.93
2023-03-01T16:40:37.012Z,11.07
2023-03-01T16:42:41.367Z,9.10
2023-03-01T16:44:44.872Z,10.40
2023-03-01T16:46:48.171Z,9.40
2023-03-01T16:48:52.596Z,6.80
2023-03-01T16:51:00.966Z,7.07
2023-03-01T16:53:06.246Z,8.77
2023-03-01T16:55:10.990Z,5.37
2023-03-01T16:57:14.314Z,8.50
2023-03-01T16:59:19.156Z,8.57
2023-03-01T17:01:25.208Z,8.00
2023-03-01T17:03:29.503Z,6.87
2023-03-01T17:05:32.860Z,6.70
2023-03-01T17:07:37.480Z,9.87
2023-03-01T17:09:42.419Z,11.17
2023-03-01T17:11:45.909Z,9.00
2023-03-01T17:13:49.775Z,8.00
2023-03-01T17:15:53.117Z,6.73
2023-03-01T17:17:56.452Z,7.63
2023-03-01T17:19:59.988Z,8.03
2023-03-01T17:22:03.560Z,11.37
2023-03-01T17:24:07.454Z,16.43
2023-03-01T17:26:13.526Z,11.40
2023-03-01T17:28:17.140Z,8.70
2023-03-01T17:30:20.742Z,9.57
2023-03-01T17:32:24.881Z,7.50
2023-03-01T17:34:28.693Z,8.50
2023-03-01T17:36:34.462Z,8.63
2023-03-01T17:38:38.248Z,9.40
2023-03-01T17:40:41.677Z,7.63
2023-03-01T17:42:46.487Z,7.10
2023-03-01T17:44:49.840Z,7.53
2023-03-01T17:46:53.122Z,6.37
2023-03-01T17:48:56.668Z,8.20
2023-03-01T17:51:00.016Z,8.27
2023-03-01T17:53:07.437Z,8.60
2023-03-01T17:55:11.657Z,7.77
2023-03-01T17:57:16.102Z,7.10
2023-03-01T17:59:20.818Z,12.67
2023-03-01T18:01:24.452Z,12.53
2023-03-01T18:03:27.873Z,14.73
2023-03-01T18:05:33.855Z,11.67
2023-03-01T18:07:37.560Z,9.40
2023-03-01T18:09:41.112Z,8.77
2023-03-01T18:11:46.729Z,13.67
2023-03-01T18:13:51.630Z,10.43
2023-03-01T18:16:00.788Z,9.40
2023-03-01T18:18:04.882Z,8.23
2023-03-01T18:20:09.322Z,7.57
2023-03-01T18:22:12.731Z,9.13
2023-03-01T18:24:16.060Z,7.27
2023-03-01T18:26:22.082Z,6.47
2023-03-01T18:28:25.876Z,8.70
2023-03-01T18:30:29.358Z,9.60
2023-03-01T18:32:34.289Z,8.50
2023-03-01T18:34:37.668Z,7.97
2023-03-01T18:36:41.652Z,7.37
2023-03-01T18:38:48.586Z,5.50
2023-03-01T18:40:53.208Z,7.73
2023-03-01T18:42:56.859Z,7.13
2023-03-01T18:45:00.285Z,7.50
2023-03-01T18:47:03.912Z,6.47
2023-03-01T18:49:09.358Z,7.80
2023-03-01T18:51:15.235Z,7.90
2023-03-01T18:53:18.713Z,6.20
2023-03-01T18:55:22.050Z,6.53
2023-03-01T18:57:25.620Z,12.10
2023-03-01T18:59:29.952Z,11.23
2023-03-01T19:01:36.852Z,6.73
2023-03-01T19:03:40.771Z,7.73
2023-03-01T19:05:46.142Z,6.30
2023-03-01T19:07:49.502Z,7.37
2023-03-01T19:09:52.884Z,7.20
2023-03-01T19:11:58.764Z,5.33
2023-03-01T19:14:03.080Z,6.17
2023-03-01T19:16:08.175Z,5.93
2023-03-01T19:18:11.500Z,5.30
2023-03-01T19:20:14.930Z,17.30
2023-03-01T19:22:19.671Z,10.23
2023-03-01T19:24:22.990Z,13.27
2023-03-01T19:26:28.677Z,8.80
2023-03-01T19:28:32.124Z,14.20
2023-03-01T19:30:35.448Z,13.03
2023-03-01T19:32:38.849Z,14.30
2023-03-01T19:34:42.304Z,11.00
2023-03-01T19:36:46.805Z,9.87
2023-03-01T19:38:51.666Z,7.87
2023-03-01T19:40:55.224Z,8.97
2023-03-01T19:42:58.729Z,11.60
2023-03-01T19:45:02.107Z,8.23
2023-03-01T19:47:05.741Z,7.10
2023-03-01T19:49:09.444Z,7.70
2023-03-01T19:51:13.600Z,5.70
2023-03-01T19:53:17.498Z,5.87
2023-03-01T19:55:22.255Z,5.20
2023-03-01T19:57:25.831Z,5.80
2023-03-01T19:59:29.184Z,13.00
2023-03-01T20:01:34.209Z,14.80
2023-03-01T20:03:38.027Z,11.63
2023-03-01T20:05:42.792Z,10.97
2023-03-01T20:07:46.100Z,12.13
2023-03-01T20:09:49.952Z,17.50
2023-03-01T20:11:54.631Z,16.73
2023-03-01T20:13:58.014Z,20.80
2023-03-01T20:16:01.445Z,12.07
2023-03-01T20:18:05.038Z,11.50
2023-03-01T20:20:09.172Z,13.20
2023-03-01T20:22:14.909Z,9.07
2023-03-01T20:24:18.227Z,10.33
2023-03-01T20:26:23.214Z,9.40
2023-03-01T20:28:27.914Z,11.50
2023-03-01T20:30:31.256Z,8.80
2023-03-01T20:32:35.446Z,10.40
2023-03-01T20:34:39.087Z,9.27
2023-03-01T20:36:44.157Z,12.23
2023-03-01T20:38:47.439Z,9.07
2023-03-01T20:40:50.868Z,13.33
2023-03-01T20:42:54.635Z,11.17
2023-03-01T20:44:59.316Z,9.20
2023-03-01T20:47:02.862Z,10.50
2023-03-01T20:49:07.328Z,8.97
2023-03-01T20:51:12.228Z,12.57
2023-03-01T20:53:15.648Z,10.20
2023-03-01T20:55:20.264Z,9.13
2023-03-01T20:57:23.565Z,8.87
2023-03-01T20:59:26.929Z,13.00
2023-03-01T21:01:31.625Z,14.43
2023-03-01T21:03:35.437Z,9.30
2023-03-01T21:05:38.773Z,8.80
2023-03-01T21:07:42.811Z,10.27
2023-03-01T21:09:46.350Z,8.77
2023-03-01T21:11:50.522Z,9.47
2023-03-01T21:13:54.357Z,9.17
2023-03-01T21:15:59.949Z,10.50
2023-03-01T21:18:04.831Z,12.30
2023-03-01T21:20:09.419Z,10.67
2023-03-01T21:22:14.410Z,8.70
2023-03-01T21:24:17.750Z,8.77
2023-03-01T21:26:22.903Z,9.33
2023-03-01T21:28:27.368Z,9.73
2023-03-01T21:30:30.848Z,9.37
2023-03-01T21:32:34.350Z,9.50
2023-03-01T21:34:40.704Z,8.50
2023-03-01T21:36:45.148Z,12.43
2023-03-01T21:38:51.074Z,10.97
2023-03-01T21:40:54.399Z,12.07
2023-03-01T21:42:57.861Z,11.50
2023-03-01T21:45:01.297Z,11.90
2023-03-01T21:47:04.691Z,11.67
2023-03-01T21:49:09.081Z,9.20
2023-03-01T21:51:15.985Z,11.93
2023-03-01T21:53:19.431Z,14.80
2023-03-01T21:55:22.834Z,9.70
2023-03-01T21:57:26.341Z,11.27
2023-03-01T21:59:29.704Z,10.17
2023-03-01T22:01:33.534Z,12.30
2023-03-01T22:03:44.953Z,11.77
2023-03-01T22:05:55.514Z,10.75
2023-03-01T22:08:00.273Z,10.97
2023-03-01T22:10:03.599Z,9.77
2023-03-01T22:12:07.369Z,9.73
2023-03-01T22:14:13.609Z,10.37
2023-03-01T22:16:17.880Z,9.87
2023-03-01T22:18:21.236Z,9.65
2023-03-01T22:20:24.522Z,9.85
2023-03-01T22:22:27.817Z,12.23
2023-03-01T22:24:32.676Z,12.17
2023-03-01T22:26:38.441Z,10.30
2023-03-01T22:28:42.247Z,13.00
2023-03-01T22:30:46.640Z,7.93
2023-03-01T22:32:49.982Z,11.43
2023-03-01T22:34:53.300Z,8.20
2023-03-01T22:36:58.940Z,9.02
2023-03-01T22:39:04.210Z,9.50
2023-03-01T22:41:09.329Z,11.07
2023-03-01T22:43:12.726Z,10.95
2023-03-01T22:45:16.376Z,10.07
2023-03-01T22:47:23.702Z,12.98
2023-03-01T22:49:27.236Z,15.82
2023-03-01T22:51:33.875Z,13.48
2023-03-01T22:53:37.913Z,13.02
2023-03-01T22:55:41.665Z,11.02
2023-03-01T22:57:46.501Z,10.70
2023-03-01T22:59:49.897Z,9.10
2023-03-01T23:01:53.991Z,9.50
2023-03-01T23:03:58.174Z,12.93
2023-03-01T23:06:01.548Z,11.15
2023-03-01T23:08:05.097Z,8.85
2023-03-01T23:10:09.618Z,10.65
2023-03-01T23:12:13.029Z,8.23
2023-03-01T23:14:17.824Z,12.80
2023-03-01T23:16:26.139Z,8.63
2023-03-01T23:18:29.992Z,8.10
2023-03-01T23:20:36.550Z,8.20
2023-03-01T23:22:39.976Z,8.30
2023-03-01T23:24:43.496Z,9.15
2023-03-01T23:26:50.448Z,8.32
2023-03-01T23:28:54.261Z,8.80
2023-03-01T23:31:01.547Z,7.70
2023-03-01T23:33:04.911Z,7.25
2023-03-01T23:35:10.642Z,7.72
2023-03-01T23:37:14.514Z,9.57
2023-03-01T23:39:18.284Z,11.15
2023-03-01T23:41:24.292Z,6.97
2023-03-01T23:43:27.839Z,9.65
2023-03-01T23:45:32.755Z,7.60
2023-03-01T23:47:37.688Z,8.35
2023-03-01T23:49:41.328Z,8.45
2023-03-01T23:51:45.601Z,8.98
2023-03-01T23:53:55.092Z,9.63
2023-03-01T23:55:59.185Z,9.48
2023-03-01T23:58:02.856Z,10.55
